Impacts TAF Board INFO
FOR SITUATIONAL AWARENESS. NOT TO BE USED FOR FLIGHT PLANNING PURPOSES.
IDs:

KPHL - Philadelphia Intl, PA, US

Issued at 0520 UTC 19 Jan 2018
Updated at 0526 UTC 19 Jan 2018
Potential Impact None Slight Moderate High
Time0454Z 19/06Z 19/07Z 19/08Z 19/09Z 19/10Z 19/11Z 19/12Z 19/13Z 19/14Z 19/15Z 19/16Z 19/17Z 19/18Z>>
Type OBS PRVL PRVL PRVL PRVL PRVL PRVL PRVL PRVL PRVL PRVL PRVL PRVL PRVL
VIS 10 >6 >6 >6 >6 >6 >6 >6 >6 >6 >6 >6 >6 >6
CIG -- -- -- -- -- -- -- -- -- -- -- -- -- --
Cover CLR SKC SKC SKC SKC SKC SKC SKC SKC SKC SKC SKC SKC SKC
FltCat VFR VFR VFR VFR VFR VFR VFR VFR VFR VFR VFR VFR VFR VFR
WX -- -- -- -- -- -- -- -- -- -- -- -- -- --
WDir VRB VRB VRB VRB VRB VRB VRB VRB 280 280 280 280 280 250
WSpd 0 3 3 3 3 3 3 3 7 7 7 7 7 9
WGst -- -- -- -- -- -- -- -- -- -- -- -- -- --

Raw TAF
KPHL 190520Z 1906/2012 VRB03KT P6SM SKC
  FM191300 28007KT P6SM SKC
  FM191800 25009KT P6SM SKC
  FM192300 22005KT P6SM SKC


Raw METAR
KPHL 190454Z 00000KT 10SM CLR M03/M08 A3011 RMK AO2 SLP196 T10281078 400221078
KPHL 190354Z 00000KT 10SM CLR M02/M12 A3012 RMK AO2 SLP199 T10221117
KPHL 190254Z 00000KT 10SM CLR M01/M12 A3012 RMK AO2 SLP198 T10111117 51013

METAR Board
Radar Display
Forecast Discussion

FOR SITUATIONAL AWARENESS. NOT TO BE USED FOR FLIGHT PLANNING PURPOSES.